Time;durP1;ratioP1;P1;durP2;ratioP2;P2;SDS_P1;SDS_P2;PMS_P1;PMS_P2;Temp;Humidity;BMP_temperature;BMP_pressure;BME280_temperature;BME280_humidity;BME280_pressure;Samples;Min_cycle;Max_cycle;Signal;HPM_P1;HPM_P2
2023/04/30 00:00:07;;;;;;;4.78;4.25;;;21.50;38.80;;;;;;5065983;28;20444;-62
2023/04/30 00:02:36;;;;;;;5.13;4.18;;;21.50;38.80;;;;;;5067263;28;20036;-60
2023/04/30 00:05:02;;;;;;;5.13;4.22;;;21.50;38.80;;;;;;5046975;28;20041;-60
2023/04/30 00:07:27;;;;;;;5.65;4.47;;;21.50;38.80;;;;;;5065843;28;20063;-61
2023/04/30 00:09:53;;;;;;;5.00;4.10;;;21.50;38.80;;;;;;5065152;28;20047;-62
2023/04/30 00:12:19;;;;;;;5.10;3.90;;;21.40;38.70;;;;;;5065813;28;20516;-61
2023/04/30 00:14:45;;;;;;;4.72;4.07;;;21.50;38.70;;;;;;5067055;28;20076;-62
2023/04/30 00:17:11;;;;;;;5.18;3.97;;;21.40;38.70;;;;;;5065175;28;20380;-63
2023/04/30 00:19:37;;;;;;;4.60;3.70;;;21.40;38.70;;;;;;5066387;28;20411;-61
2023/04/30 00:22:04;;;;;;;4.72;4.10;;;21.50;38.70;;;;;;5064064;28;20044;-60
2023/04/30 00:24:30;;;;;;;4.40;3.85;;;21.40;38.70;;;;;;5066014;28;20059;-61
2023/04/30 00:26:56;;;;;;;6.47;4.10;;;21.50;38.70;;;;;;5066242;28;20028;-59
2023/04/30 00:29:22;;;;;;;4.55;3.85;;;21.40;38.60;;;;;;5065646;28;20841;-61
2023/04/30 00:31:47;;;;;;;5.03;3.58;;;21.40;38.60;;;;;;5063879;28;21383;-59
2023/04/30 00:34:14;;;;;;;3.92;3.17;;;21.40;38.60;;;;;;5061423;28;20039;-60
2023/04/30 00:36:40;;;;;;;4.65;3.65;;;21.40;38.60;;;;;;5065695;28;20107;-61
2023/04/30 00:39:06;;;;;;;4.35;3.50;;;21.40;38.60;;;;;;5064018;28;20025;-60
2023/04/30 00:41:34;;;;;;;5.20;3.33;;;21.40;38.60;;;;;;5062623;28;20166;-60
2023/04/30 00:44:01;;;;;;;3.97;3.50;;;21.40;38.50;;;;;;5064637;28;20173;-59
2023/04/30 00:46:27;;;;;;;3.95;3.03;;;21.40;38.50;;;;;;5065464;28;20125;-59
2023/04/30 00:48:53;;;;;;;4.00;3.42;;;21.40;38.50;;;;;;5065757;28;20040;-61
2023/04/30 00:51:19;;;;;;;4.88;3.67;;;21.40;38.50;;;;;;5065152;28;20033;-61
2023/04/30 00:53:45;;;;;;;4.70;3.53;;;21.40;38.60;;;;;;5065452;28;20040;-62
2023/04/30 00:56:15;;;;;;;4.63;3.20;;;21.40;38.70;;;;;;5063677;28;20124;-60
2023/04/30 00:58:41;;;;;;;3.38;2.85;;;21.40;38.70;;;;;;5066369;28;20085;-60
2023/04/30 01:01:07;;;;;;;4.03;3.22;;;21.40;38.60;;;;;;5064751;28;20035;-60
2023/04/30 01:03:34;;;;;;;3.72;3.15;;;21.40;38.60;;;;;;5065743;28;20115;-61
2023/04/30 01:06:02;;;;;;;3.42;2.70;;;21.40;38.60;;;;;;5061478;28;20130;-60
2023/04/30 01:08:30;;;;;;;3.58;2.85;;;21.40;38.60;;;;;;5062063;28;20086;-61
2023/04/30 01:11:16;;;;;;;3.22;2.70;;;21.40;38.50;;;;;;5065537;28;20032;-62
2023/04/30 01:13:57;;;;;;;3.40;2.88;;;21.40;38.50;;;;;;5064566;28;20123;-60
2023/04/30 01:16:32;;;;;;;3.53;2.67;;;21.40;38.50;;;;;;5065255;28;20043;-59
2023/04/30 01:19:06;;;;;;;3.92;3.10;;;21.40;38.40;;;;;;5064568;28;20430;-59
2023/04/30 01:21:34;;;;;;;4.15;2.60;;;21.40;38.40;;;;;;5062933;28;20025;-60
2023/04/30 01:24:26;;;;;;;3.17;2.70;;;21.40;38.40;;;;;;5064081;28;20025;-60
2023/04/30 01:27:24;;;;;;;3.28;2.38;;;21.40;38.40;;;;;;5039818;28;20037;-59
2023/04/30 01:29:53;;;;;;;3.20;2.33;;;21.40;38.40;;;;;;4977150;28;20038;-59
2023/04/30 01:32:19;;;;;;;3.17;2.38;;;21.40;38.40;;;;;;5062046;28;20538;-59
2023/04/30 01:34:45;;;;;;;2.97;2.25;;;21.30;38.30;;;;;;5064342;28;20152;-60
2023/04/30 01:37:35;;;;;;;3.63;2.50;;;21.30;38.40;;;;;;5064708;28;20044;-63
2023/04/30 01:40:22;;;;;;;2.80;2.25;;;21.30;38.20;;;;;;5064082;28;20339;-62
2023/04/30 01:43:29;;;;;;;4.50;2.65;;;21.30;38.20;;;;;;5062087;28;20028;-62
2023/04/30 01:46:17;;;;;;;2.88;2.30;;;21.30;38.20;;;;;;5061413;28;20060;-61
2023/04/30 01:48:51;;;;;;;3.08;2.13;;;21.30;38.20;;;;;;5065827;28;21475;-64
2023/04/30 01:51:29;;;;;;;2.75;2.00;;;21.30;38.20;;;;;;5062039;28;20024;-61
2023/04/30 01:54:05;;;;;;;3.85;2.45;;;21.30;38.20;;;;;;5067669;28;20065;-61
2023/04/30 01:56:43;;;;;;;3.35;2.42;;;21.30;38.20;;;;;;5067080;28;21558;-64
2023/04/30 01:59:10;;;;;;;3.33;2.38;;;21.30;38.10;;;;;;5067775;28;20038;-61
2023/04/30 02:01:36;;;;;;;2.65;2.08;;;21.30;38.20;;;;;;5065304;28;20035;-63
2023/04/30 02:04:03;;;;;;;3.40;2.13;;;21.30;38.10;;;;;;5067646;28;20039;-61
2023/04/30 02:06:30;;;;;;;2.40;1.80;;;21.30;38.10;;;;;;5049433;28;20071;-61
2023/04/30 02:09:01;;;;;;;2.15;1.90;;;21.30;38.10;;;;;;5066060;28;20160;-61
2023/04/30 02:11:28;;;;;;;3.08;2.10;;;21.30;38.10;;;;;;5068052;28;20040;-61
2023/04/30 02:13:54;;;;;;;2.58;1.80;;;21.30;38.10;;;;;;5069327;28;20097;-60
2023/04/30 02:16:20;;;;;;;2.50;1.95;;;21.30;38.20;;;;;;5067182;28;20320;-61
2023/04/30 02:18:46;;;;;;;2.60;1.88;;;21.20;38.10;;;;;;5062739;28;20059;-61
2023/04/30 02:21:13;;;;;;;2.72;1.80;;;21.30;38.20;;;;;;5066821;28;20048;-62
2023/04/30 02:23:39;;;;;;;2.35;1.77;;;21.30;38.10;;;;;;5067309;28;20021;-60
2023/04/30 02:26:07;;;;;;;2.28;1.92;;;21.30;38.10;;;;;;5069098;28;20079;-61
2023/04/30 02:28:33;;;;;;;2.80;1.75;;;21.30;38.10;;;;;;5067269;28;20454;-61
2023/04/30 02:30:58;;;;;;;3.65;2.15;;;21.30;38.70;;;;;;5068425;28;20401;-62
2023/04/30 02:33:24;;;;;;;4.07;1.70;;;21.30;38.00;;;;;;5067568;28;20119;-60
2023/04/30 02:35:50;;;;;;;2.47;1.70;;;21.30;38.00;;;;;;5069281;28;20180;-61
2023/04/30 02:38:16;;;;;;;2.03;1.65;;;21.30;38.00;;;;;;5066894;28;20028;-61
2023/04/30 02:40:42;;;;;;;2.08;1.70;;;21.20;37.90;;;;;;5067228;28;20040;-60
2023/04/30 02:43:08;;;;;;;2.13;1.30;;;21.20;37.90;;;;;;5066449;28;20334;-59
2023/04/30 02:45:33;;;;;;;1.75;1.50;;;21.20;37.90;;;;;;5066194;28;20190;-60
2023/04/30 02:47:59;;;;;;;2.10;1.50;;;21.20;37.90;;;;;;5066593;28;20523;-59
2023/04/30 02:50:25;;;;;;;1.73;1.40;;;21.20;38.50;;;;;;5067696;28;20108;-59
2023/04/30 02:52:51;;;;;;;2.95;1.40;;;21.20;37.80;;;;;;5066786;28;20134;-61
2023/04/30 02:55:17;;;;;;;2.38;1.58;;;21.20;37.80;;;;;;5067062;28;20081;-63
2023/04/30 02:57:43;;;;;;;3.35;1.45;;;21.20;37.80;;;;;;5046938;28;20461;-59
2023/04/30 03:00:09;;;;;;;1.77;1.50;;;21.20;37.80;;;;;;5067966;28;20351;-59
2023/04/30 03:02:35;;;;;;;2.00;1.40;;;21.20;37.80;;;;;;5066662;28;20121;-60
2023/04/30 03:05:02;;;;;;;2.42;1.52;;;21.20;37.80;;;;;;5065614;28;20321;-60
2023/04/30 03:07:29;;;;;;;2.03;1.35;;;21.20;37.80;;;;;;5063467;28;20142;-60
2023/04/30 03:09:54;;;;;;;3.95;1.20;;;21.20;37.80;;;;;;5066453;28;20020;-59
2023/04/30 03:12:20;;;;;;;1.85;1.30;;;21.20;37.70;;;;;;5066775;28;20025;-62
2023/04/30 03:14:46;;;;;;;2.90;1.70;;;21.20;37.80;;;;;;5065959;28;20032;-59
2023/04/30 03:17:12;;;;;;;1.70;1.48;;;21.20;37.70;;;;;;5065320;28;20035;-60
2023/04/30 03:19:38;;;;;;;1.80;1.20;;;21.20;37.70;;;;;;5064713;28;20086;-59
2023/04/30 03:22:04;;;;;;;1.50;1.08;;;21.20;37.70;;;;;;5067821;28;20029;-60
2023/04/30 03:24:30;;;;;;;2.17;1.33;;;21.20;37.70;;;;;;5068303;28;20091;-62
2023/04/30 03:26:55;;;;;;;2.17;1.45;;;21.20;37.70;;;;;;5064632;28;20040;-60
2023/04/30 03:29:22;;;;;;;1.95;1.30;;;21.20;37.70;;;;;;5067658;28;20105;-60
2023/04/30 03:31:47;;;;;;;2.50;1.48;;;21.20;37.70;;;;;;5066797;28;20032;-60
2023/04/30 03:34:13;;;;;;;2.08;1.38;;;21.20;37.70;;;;;;5066945;28;20404;-59
2023/04/30 03:36:39;;;;;;;1.75;1.35;;;21.20;37.70;;;;;;5065170;28;20051;-59
2023/04/30 03:39:08;;;;;;;1.65;1.10;;;21.20;37.70;;;;;;5067902;28;20127;-60
2023/04/30 03:41:34;;;;;;;1.77;1.30;;;21.20;37.70;;;;;;5064274;28;20443;-60
2023/04/30 03:44:00;;;;;;;1.60;1.15;;;21.20;37.70;;;;;;5065275;28;20056;-60
2023/04/30 03:46:26;;;;;;;1.70;1.10;;;21.20;37.60;;;;;;5065918;28;20040;-63
2023/04/30 03:48:53;;;;;;;2.70;1.55;;;21.20;37.60;;;;;;5069467;28;20040;-61
2023/04/30 03:51:20;;;;;;;1.52;1.17;;;21.20;37.60;;;;;;5064433;28;20040;-60
2023/04/30 03:53:46;;;;;;;1.60;1.17;;;21.20;37.60;;;;;;5067041;28;20407;-60
2023/04/30 03:56:12;;;;;;;2.28;1.33;;;21.20;37.60;;;;;;5065827;28;20032;-60
2023/04/30 03:58:38;;;;;;;1.50;1.15;;;21.20;37.60;;;;;;5066537;28;20111;-59
2023/04/30 04:01:04;;;;;;;2.58;1.30;;;21.10;37.50;;;;;;5049822;28;20120;-60
2023/04/30 04:03:32;;;;;;;2.35;1.25;;;21.10;37.50;;;;;;5065971;28;20301;-61
2023/04/30 04:05:58;;;;;;;2.17;1.20;;;21.10;37.50;;;;;;5068828;28;20304;-61
2023/04/30 04:08:24;;;;;;;2.85;1.17;;;21.10;38.10;;;;;;5063944;28;20077;-60
2023/04/30 04:10:50;;;;;;;2.88;1.55;;;21.10;37.50;;;;;;5065821;28;20458;-59
2023/04/30 04:13:16;;;;;;;1.52;1.00;;;21.10;37.50;;;;;;5065419;28;20111;-61
2023/04/30 04:15:42;;;;;;;1.75;1.10;;;21.10;37.50;;;;;;5067228;28;20834;-60
2023/04/30 04:18:08;;;;;;;2.53;1.33;;;21.10;37.50;;;;;;5064585;28;20051;-60
2023/04/30 04:20:33;;;;;;;1.42;0.90;;;21.10;37.40;;;;;;5066493;28;20418;-63
2023/04/30 04:22:59;;;;;;;1.98;1.15;;;21.10;37.40;;;;;;5066051;28;20366;-59
2023/04/30 04:25:26;;;;;;;1.25;1.00;;;21.10;37.40;;;;;;5067258;28;20424;-61
2023/04/30 04:27:52;;;;;;;2.35;1.20;;;21.10;37.40;;;;;;5062913;28;20119;-61
2023/04/30 04:30:18;;;;;;;1.92;0.90;;;21.10;37.40;;;;;;5064744;28;20044;-63
2023/04/30 04:32:47;;;;;;;2.63;1.20;;;21.10;37.40;;;;;;5064528;28;20218;-61
2023/04/30 04:35:14;;;;;;;2.03;1.20;;;21.10;37.50;;;;;;5064739;28;20069;-59
2023/04/30 04:37:41;;;;;;;1.42;1.10;;;21.10;37.50;;;;;;5062964;28;20043;-61
2023/04/30 04:40:08;;;;;;;1.35;1.10;;;21.10;37.50;;;;;;5065946;28;20032;-59
2023/04/30 04:42:34;;;;;;;1.52;1.15;;;21.10;37.50;;;;;;5064428;28;20653;-61
2023/04/30 04:45:00;;;;;;;1.95;1.02;;;21.10;37.50;;;;;;5062210;28;20055;-61
2023/04/30 04:47:26;;;;;;;2.15;1.20;;;21.10;37.50;;;;;;5064027;28;20097;-61
2023/04/30 04:49:52;;;;;;;1.63;1.02;;;21.10;37.50;;;;;;5066215;28;20115;-61
2023/04/30 04:52:18;;;;;;;1.90;1.17;;;21.10;37.40;;;;;;5066673;28;20073;-61
2023/04/30 04:54:43;;;;;;;1.08;0.88;;;21.10;38.10;;;;;;5067173;28;20036;-60
2023/04/30 04:57:10;;;;;;;2.08;1.40;;;21.10;37.40;;;;;;5064382;28;20104;-59
2023/04/30 04:59:35;;;;;;;2.13;1.20;;;21.10;37.40;;;;;;5066565;28;20059;-61
2023/04/30 05:02:01;;;;;;;1.95;1.25;;;21.10;37.40;;;;;;5066705;28;20377;-61
2023/04/30 05:04:27;;;;;;;1.13;1.00;;;21.10;37.40;;;;;;5065656;28;20037;-61
2023/04/30 05:06:53;;;;;;;1.95;1.20;;;21.10;37.40;;;;;;5065996;28;20063;-60
2023/04/30 05:09:19;;;;;;;2.00;1.10;;;21.10;37.40;;;;;;5065276;28;20138;-60
2023/04/30 05:11:47;;;;;;;1.85;1.10;;;21.10;37.40;;;;;;5065295;28;20024;-59
2023/04/30 05:14:13;;;;;;;1.98;1.00;;;21.10;37.40;;;;;;5067053;28;20107;-59
2023/04/30 05:16:39;;;;;;;2.08;1.20;;;21.10;37.40;;;;;;5065049;28;20388;-59
2023/04/30 05:19:06;;;;;;;2.63;1.48;;;21.10;37.40;;;;;;5066200;28;20024;-60
2023/04/30 05:21:31;;;;;;;2.15;1.00;;;21.10;37.40;;;;;;5064863;28;20383;-59
2023/04/30 05:23:57;;;;;;;1.17;1.05;;;21.10;37.40;;;;;;5065183;28;20044;-59
2023/04/30 05:26:23;;;;;;;2.53;1.30;;;21.10;37.40;;;;;;5066303;28;20106;-59
2023/04/30 05:28:51;;;;;;;1.30;0.90;;;21.10;37.40;;;;;;5069408;28;20699;-60
2023/04/30 05:31:17;;;;;;;1.45;1.23;;;21.10;37.40;;;;;;5070081;28;20016;-61
2023/04/30 05:33:43;;;;;;;1.83;1.05;;;21.10;37.40;;;;;;5071051;28;20024;-62
2023/04/30 05:36:10;;;;;;;1.52;0.95;;;21.10;37.50;;;;;;5070244;28;20478;-61
2023/04/30 05:38:35;;;;;;;1.40;1.08;;;21.10;37.50;;;;;;5070788;28;20039;-60
2023/04/30 05:41:01;;;;;;;1.80;1.05;;;21.20;37.70;;;;;;5070179;28;20069;-61
2023/04/30 05:43:27;;;;;;;1.55;0.82;;;21.20;37.70;;;;;;5069163;28;20028;-61
2023/04/30 05:45:53;;;;;;;1.52;0.90;;;21.10;37.60;;;;;;5067962;28;20063;-60
2023/04/30 05:48:19;;;;;;;1.85;1.00;;;21.20;37.70;;;;;;5070597;28;20048;-61
2023/04/30 05:50:44;;;;;;;2.90;1.00;;;21.10;37.60;;;;;;5070954;28;20139;-60
2023/04/30 05:53:10;;;;;;;1.70;1.00;;;21.20;37.70;;;;;;5070366;28;20416;-60
2023/04/30 05:55:36;;;;;;;1.27;1.10;;;21.20;37.70;;;;;;5070855;28;20077;-62
2023/04/30 05:58:02;;;;;;;1.08;0.82;;;21.20;37.70;;;;;;5067601;28;20112;-60
2023/04/30 06:00:28;;;;;;;2.35;1.13;;;21.20;37.70;;;;;;5069056;28;20122;-60
2023/04/30 06:02:53;;;;;;;1.23;1.02;;;21.20;37.80;;;;;;5070000;28;20060;-60
2023/04/30 06:05:19;;;;;;;1.40;0.95;;;21.20;37.80;;;;;;5068303;28;20028;-61
2023/04/30 06:07:45;;;;;;;1.10;0.80;;;21.20;37.80;;;;;;5066016;28;20498;-61
2023/04/30 06:10:11;;;;;;;2.95;1.00;;;21.20;37.80;;;;;;5070983;28;20024;-60
2023/04/30 06:12:38;;;;;;;1.73;1.08;;;21.20;37.80;;;;;;5069828;28;20033;-60
2023/04/30 06:15:05;;;;;;;2.35;1.08;;;21.20;37.80;;;;;;5070346;28;20385;-60
2023/04/30 06:17:31;;;;;;;1.90;0.90;;;21.20;37.80;;;;;;5065855;28;20068;-61
2023/04/30 06:19:59;;;;;;;1.27;1.00;;;21.20;37.80;;;;;;5070386;28;20188;-60
2023/04/30 06:22:25;;;;;;;1.58;1.08;;;21.20;37.80;;;;;;5067041;28;20047;-58
2023/04/30 06:24:51;;;;;;;1.58;0.95;;;21.20;37.80;;;;;;5066077;28;20056;-61
2023/04/30 06:27:17;;;;;;;1.80;1.05;;;21.20;38.40;;;;;;5047480;28;20037;-60
2023/04/30 06:29:43;;;;;;;1.80;1.00;;;21.20;37.80;;;;;;5068146;28;20126;-60
2023/04/30 06:32:08;;;;;;;1.42;1.08;;;21.20;37.70;;;;;;5066981;28;20336;-60
2023/04/30 06:34:35;;;;;;;2.38;1.33;;;21.20;37.80;;;;;;5067441;28;20048;-59
2023/04/30 06:37:02;;;;;;;3.80;0.95;;;21.20;37.80;;;;;;5068370;28;20553;-59
2023/04/30 06:39:28;;;;;;;1.90;1.20;;;21.20;37.80;;;;;;5066712;28;20028;-61
2023/04/30 06:41:53;;;;;;;2.25;1.08;;;21.20;37.90;;;;;;5064500;28;20029;-61
2023/04/30 06:44:21;;;;;;;1.90;1.00;;;21.20;38.00;;;;;;5065580;28;20045;-63
2023/04/30 06:46:47;;;;;;;2.17;1.48;;;21.20;38.10;;;;;;5044297;28;20025;-62
2023/04/30 06:49:13;;;;;;;1.90;1.30;;;21.20;38.10;;;;;;5062205;28;20056;-63
2023/04/30 06:51:45;;;;;;;2.72;1.50;;;21.20;38.20;;;;;;5065636;28;20025;-61
2023/04/30 06:54:11;;;;;;;3.33;2.03;;;21.10;38.80;;;;;;5064273;28;20088;-62
2023/04/30 06:56:36;;;;;;;4.07;2.40;;;21.10;38.20;;;;;;5068780;28;20025;-61
2023/04/30 06:59:02;;;;;;;4.57;2.40;;;21.10;38.20;;;;;;5066377;28;20017;-62
2023/04/30 07:01:29;;;;;;;4.15;2.50;;;21.10;38.30;;;;;;5065092;28;20350;-62
2023/04/30 07:03:55;;;;;;;5.13;2.78;;;21.10;38.40;;;;;;5066969;28;20159;-59
2023/04/30 07:06:21;;;;;;;3.60;2.83;;;21.10;38.40;;;;;;5067216;28;20127;-60
2023/04/30 07:08:47;;;;;;;7.60;3.97;;;21.10;38.40;;;;;;5065863;28;20037;-61
2023/04/30 07:11:13;;;;;;;4.97;3.97;;;21.10;38.50;;;;;;5067073;28;20061;-60
2023/04/30 07:13:39;;;;;;;5.93;4.47;;;21.10;38.60;;;;;;5067011;28;20309;-60
2023/04/30 07:16:05;;;;;;;5.55;4.05;;;21.10;38.70;;;;;;5065936;28;20021;-63
2023/04/30 07:18:31;;;;;;;5.47;4.00;;;21.10;38.80;;;;;;5065406;28;20396;-58
2023/04/30 07:20:57;;;;;;;7.82;4.50;;;21.10;38.80;;;;;;5064852;28;20028;-61
2023/04/30 07:23:23;;;;;;;4.97;3.67;;;21.10;38.80;;;;;;5070537;28;20115;-60
2023/04/30 07:25:49;;;;;;;5.32;3.80;;;21.10;38.80;;;;;;5072051;28;20138;-63
2023/04/30 07:28:15;;;;;;;6.10;4.10;;;21.10;38.80;;;;;;5068431;28;20021;-60
2023/04/30 07:30:41;;;;;;;5.72;3.70;;;21.10;38.80;;;;;;5065920;28;20029;-61
2023/04/30 07:33:08;;;;;;;4.22;3.55;;;21.10;38.70;;;;;;5064987;28;20101;-62
2023/04/30 07:35:34;;;;;;;5.13;3.70;;;21.10;38.70;;;;;;5064562;28;20082;-60
2023/04/30 07:38:00;;;;;;;6.38;3.70;;;21.10;38.70;;;;;;5067094;28;20463;-58
2023/04/30 07:40:26;;;;;;;6.10;3.78;;;21.10;38.70;;;;;;5066867;28;20128;-62
2023/04/30 07:42:51;;;;;;;6.07;3.70;;;21.00;38.60;;;;;;5064835;28;20020;-59
2023/04/30 07:45:17;;;;;;;4.97;3.17;;;21.10;38.70;;;;;;5065165;28;20430;-61
2023/04/30 07:47:43;;;;;;;4.15;3.15;;;21.10;38.60;;;;;;5064473;28;20177;-60
2023/04/30 07:50:11;;;;;;;4.60;3.10;;;21.10;38.60;;;;;;5065845;28;20035;-61
2023/04/30 07:52:36;;;;;;;4.03;2.88;;;21.10;38.60;;;;;;5065859;28;20032;-61
2023/04/30 07:55:02;;;;;;;5.43;3.28;;;21.10;38.50;;;;;;5066479;28;20139;-59
2023/04/30 07:57:28;;;;;;;5.70;3.08;;;21.00;38.40;;;;;;5064786;28;20138;-60
2023/04/30 07:59:54;;;;;;;4.55;3.20;;;21.10;38.50;;;;;;5066333;28;20036;-59
2023/04/30 08:02:20;;;;;;;4.30;3.60;;;21.00;38.40;;;;;;5065026;28;20040;-60
2023/04/30 08:04:46;;;;;;;7.57;4.97;;;21.10;38.50;;;;;;5064225;28;20036;-60
2023/04/30 08:07:14;;;;;;;6.32;5.22;;;21.10;38.70;;;;;;5063513;28;20471;-65
2023/04/30 08:09:40;;;;;;;7.47;5.20;;;21.00;38.70;;;;;;5065642;28;20032;-60
2023/04/30 08:12:08;;;;;;;8.95;5.20;;;21.10;38.90;;;;;;5066006;28;20021;-61
2023/04/30 08:14:33;;;;;;;6.63;4.95;;;21.00;38.90;;;;;;5065501;28;20040;-61
2023/04/30 08:17:01;;;;;;;6.22;4.65;;;21.10;38.90;;;;;;5059671;28;20021;-61
2023/04/30 08:19:27;;;;;;;7.32;5.00;;;21.10;38.90;;;;;;5059837;28;20033;-63
2023/04/30 08:21:53;;;;;;;6.60;4.80;;;21.00;38.90;;;;;;5059059;28;20050;-63
2023/04/30 08:24:21;;;;;;;6.90;4.70;;;21.00;38.90;;;;;;5063457;28;20416;-62
2023/04/30 08:26:46;;;;;;;5.82;4.70;;;21.10;39.00;;;;;;5065478;28;20032;-61
2023/04/30 08:29:12;;;;;;;7.70;4.72;;;21.10;38.90;;;;;;5060993;28;20082;-61
2023/04/30 08:31:38;;;;;;;6.38;4.47;;;21.10;39.00;;;;;;5065112;28;20032;-62
2023/04/30 08:34:06;;;;;;;6.63;4.60;;;21.10;39.00;;;;;;5064134;28;20024;-61
2023/04/30 08:36:31;;;;;;;5.88;4.20;;;21.10;38.90;;;;;;5060479;28;20433;-64
2023/04/30 08:38:57;;;;;;;5.38;4.72;;;21.10;38.90;;;;;;5066373;28;20024;-61
2023/04/30 08:41:26;;;;;;;5.82;4.28;;;21.10;39.00;;;;;;5065032;28;20055;-62
2023/04/30 08:43:55;;;;;;;5.65;4.10;;;21.10;39.00;;;;;;5070378;28;20029;-60
2023/04/30 08:46:23;;;;;;;5.93;4.43;;;21.10;39.10;;;;;;5068329;28;20085;-61
2023/04/30 08:48:49;;;;;;;6.78;4.57;;;21.10;39.20;;;;;;5063098;28;20123;-58
2023/04/30 08:51:15;;;;;;;6.10;4.28;;;21.10;39.30;;;;;;5062821;28;20093;-59
2023/04/30 08:53:43;;;;;;;6.10;4.20;;;21.10;39.30;;;;;;5061896;28;20033;-62
2023/04/30 08:56:10;;;;;;;5.85;3.97;;;21.10;39.30;;;;;;5064037;28;20056;-54
2023/04/30 08:58:36;;;;;;;5.97;3.85;;;21.10;40.00;;;;;;5064775;28;20069;-58
2023/04/30 09:01:05;;;;;;;5.97;4.50;;;21.10;39.30;;;;;;5066009;28;20021;-64
2023/04/30 09:03:31;;;;;;;5.53;3.33;;;21.10;39.30;;;;;;5069858;28;20112;-56
2023/04/30 09:05:57;;;;;;;8.65;6.65;;;21.10;39.20;;;;;;5067683;28;20366;-61
2023/04/30 09:08:46;;;;;;;16.80;12.07;;;21.10;39.20;;;;;;5070861;28;20028;-59
2023/04/30 09:11:22;;;;;;;26.08;17.40;;;21.20;39.70;;;;;;5074387;28;20043;-59
2023/04/30 09:13:51;;;;;;;33.10;20.77;;;21.10;41.10;;;;;;5072678;28;20364;-62
2023/04/30 09:16:18;;;;;;;30.30;20.60;;;21.20;42.70;;;;;;5073853;28;20020;-61
2023/04/30 09:18:44;;;;;;;35.50;21.23;;;21.20;43.60;;;;;;5072168;28;20428;-60
2023/04/30 09:21:10;;;;;;;31.77;22.00;;;21.20;44.00;;;;;;5073023;28;20025;-59
2023/04/30 09:23:35;;;;;;;30.58;22.98;;;21.20;44.60;;;;;;5063852;28;20159;-65
2023/04/30 09:26:01;;;;;;;36.50;25.50;;;21.30;45.40;;;;;;5074410;28;20057;-59
2023/04/30 09:28:28;;;;;;;35.22;25.20;;;21.30;46.10;;;;;;5072476;28;20040;-60
2023/04/30 09:30:57;;;;;;;44.08;27.77;;;21.30;46.70;;;;;;5071850;28;20039;-57
2023/04/30 09:33:23;;;;;;;46.35;29.05;;;21.40;48.00;;;;;;5073251;28;20487;-59
2023/04/30 09:35:49;;;;;;;46.95;28.42;;;21.40;48.10;;;;;;5073817;28;20048;-58
2023/04/30 09:38:29;;;;;;;40.90;28.15;;;21.40;48.40;;;;;;5073667;28;20446;-58
2023/04/30 09:40:57;;;;;;;39.15;26.27;;;21.50;48.70;;;;;;5061170;28;20026;-61
2023/04/30 09:43:23;;;;;;;37.03;25.83;;;21.40;48.40;;;;;;5065479;28;20040;-59
2023/04/30 09:45:50;;;;;;;38.50;25.60;;;21.40;48.20;;;;;;5070084;28;20064;-60
2023/04/30 09:48:17;;;;;;;37.58;26.90;;;21.50;48.50;;;;;;5057828;28;20043;-61
2023/04/30 09:50:44;;;;;;;35.58;24.85;;;21.50;48.80;;;;;;5073505;28;20032;-61
2023/04/30 09:53:16;;;;;;;29.73;21.52;;;21.50;48.80;;;;;;5073874;28;20040;-62
2023/04/30 09:55:46;;;;;;;25.83;20.40;;;21.60;48.10;;;;;;5073190;28;20047;-59
2023/04/30 09:58:13;;;;;;;26.52;20.23;;;21.50;47.20;;;;;;5068503;28;20067;-61
2023/04/30 10:00:40;;;;;;;25.52;20.40;;;21.50;46.50;;;;;;5073631;28;20057;-62
2023/04/30 10:03:08;;;;;;;27.95;21.75;;;21.60;45.90;;;;;;5073264;28;20314;-60
2023/04/30 10:05:45;;;;;;;23.73;20.70;;;21.60;45.30;;;;;;5071682;28;20123;-63
2023/04/30 10:08:37;;;;;;;26.48;21.45;;;21.60;44.80;;;;;;5069711;28;20025;-62
2023/04/30 10:11:06;;;;;;;26.27;21.88;;;21.60;44.40;;;;;;5072536;28;20344;-62
2023/04/30 10:13:40;;;;;;;18.05;16.10;;;21.60;44.10;;;;;;5068144;28;20024;-63
2023/04/30 10:16:35;;;;;;;13.02;10.27;;;21.60;43.50;;;;;;5073194;28;20312;-60
2023/04/30 10:19:09;;;;;;;21.33;16.67;;;21.60;42.50;;;;;;5066320;28;20036;-61
2023/04/30 10:21:40;;;;;;;24.00;19.33;;;21.60;42.40;;;;;;5067086;28;20443;-59
2023/04/30 10:24:09;;;;;;;25.17;21.42;;;21.60;42.50;;;;;;5066833;28;20111;-59
2023/04/30 10:26:35;;;;;;;25.10;22.52;;;21.60;42.50;;;;;;5067735;28;20040;-63
2023/04/30 10:29:02;;;;;;;26.73;22.63;;;21.60;42.50;;;;;;5067578;28;20039;-60
2023/04/30 10:31:29;;;;;;;25.80;21.88;;;21.60;42.50;;;;;;5068036;28;20028;-61
2023/04/30 10:34:18;;;;;;;26.27;22.27;;;21.60;42.50;;;;;;5065836;28;20021;-63
2023/04/30 10:36:56;;;;;;;29.20;22.38;;;21.60;42.50;;;;;;5033373;28;20140;-62
2023/04/30 10:39:26;;;;;;;27.02;22.83;;;21.60;42.40;;;;;;5056233;28;20055;-62
2023/04/30 10:42:03;;;;;;;27.35;22.30;;;21.60;42.40;;;;;;5061997;28;20302;-66
2023/04/30 10:44:37;;;;;;;25.98;22.55;;;21.60;42.40;;;;;;5064470;28;20064;-61
2023/04/30 10:47:06;;;;;;;26.90;22.85;;;21.70;42.40;;;;;;5066391;28;20067;-63
2023/04/30 10:49:32;;;;;;;29.15;23.77;;;21.70;42.40;;;;;;5067030;28;20016;-60
2023/04/30 10:52:00;;;;;;;25.45;22.23;;;21.70;42.40;;;;;;5066328;28;20086;-61
2023/04/30 10:54:31;;;;;;;26.70;22.80;;;21.70;42.30;;;;;;5067804;28;20039;-63
2023/04/30 10:57:13;;;;;;;28.05;23.38;;;21.70;42.20;;;;;;5066419;28;20111;-62
2023/04/30 11:00:13;;;;;;;26.15;22.85;;;21.70;42.20;;;;;;5063809;28;20143;-61
2023/04/30 11:02:42;;;;;;;25.42;22.58;;;21.80;42.20;;;;;;5066849;28;20278;-64
2023/04/30 11:05:16;;;;;;;29.05;23.83;;;21.80;42.20;;;;;;5080579;28;20408;-65
2023/04/30 11:07:56;;;;;;;26.50;23.55;;;21.80;42.20;;;;;;5065281;28;20050;-63
2023/04/30 11:10:24;;;;;;;26.70;23.63;;;21.80;42.10;;;;;;5064182;28;20119;-63
2023/04/30 11:12:51;;;;;;;26.40;23.27;;;21.80;42.10;;;;;;5065294;28;20043;-63
2023/04/30 11:15:33;;;;;;;27.00;23.38;;;21.80;42.00;;;;;;5066776;28;20048;-62
2023/04/30 11:17:59;;;;;;;27.77;23.90;;;21.80;42.00;;;;;;5064314;28;20029;-65
2023/04/30 11:20:25;;;;;;;27.33;23.63;;;21.80;42.00;;;;;;5065524;28;20048;-61
2023/04/30 11:23:11;;;;;;;26.13;23.42;;;21.80;41.90;;;;;;5065963;28;20438;-62
2023/04/30 11:25:45;;;;;;;24.95;21.92;;;21.90;42.00;;;;;;5066090;28;20103;-59
2023/04/30 11:28:18;;;;;;;26.08;23.40;;;21.80;41.90;;;;;;5066049;28;20432;-58
2023/04/30 11:30:55;;;;;;;27.73;22.88;;;21.90;41.90;;;;;;5062747;28;20448;-59
2023/04/30 11:33:22;;;;;;;24.55;20.85;;;21.90;41.70;;;;;;5064111;28;20024;-60
2023/04/30 11:35:52;;;;;;;23.80;20.63;;;21.90;41.60;;;;;;5066886;28;20025;-61
2023/04/30 11:38:25;;;;;;;23.58;18.77;;;21.90;41.40;;;;;;5065620;28;20024;-59
2023/04/30 11:40:53;;;;;;;20.45;17.45;;;21.90;41.30;;;;;;5065221;28;20028;-61
2023/04/30 11:43:27;;;;;;;21.73;17.70;;;21.90;41.10;;;;;;5065445;28;20028;-59
2023/04/30 11:46:05;;;;;;;18.95;15.85;;;21.90;41.00;;;;;;5063494;28;20060;-59
2023/04/30 11:48:35;;;;;;;17.45;14.63;;;21.90;40.80;;;;;;5065702;28;20097;-59
2023/04/30 11:51:21;;;;;;;15.98;13.25;;;21.90;40.70;;;;;;5065803;28;20041;-59
2023/04/30 11:53:51;;;;;;;15.23;12.05;;;21.90;40.50;;;;;;5063909;28;20043;-60
2023/04/30 11:56:22;;;;;;;14.63;10.77;;;21.90;40.40;;;;;;5062063;28;20028;-60
2023/04/30 11:58:50;;;;;;;12.75;10.55;;;21.90;40.20;;;;;;5064778;28;20047;-60
2023/04/30 12:01:17;;;;;;;12.05;9.73;;;21.90;40.10;;;;;;5062745;28;20098;-59
2023/04/30 12:03:45;;;;;;;10.50;9.40;;;21.90;40.00;;;;;;5061051;28;20123;-60
2023/04/30 12:06:20;;;;;;;11.35;9.02;;;21.90;40.00;;;;;;5063503;28;20134;-61
2023/04/30 12:08:46;;;;;;;11.15;8.05;;;21.90;39.80;;;;;;5059365;28;20113;-62
2023/04/30 12:11:27;;;;;;;10.02;8.32;;;21.90;39.80;;;;;;5064730;28;20028;-60
2023/04/30 12:14:01;;;;;;;8.05;6.95;;;21.90;39.70;;;;;;5066885;28;20100;-58
2023/04/30 12:16:37;;;;;;;8.18;6.97;;;21.90;39.60;;;;;;5065402;28;20036;-60
2023/04/30 12:19:05;;;;;;;7.68;6.03;;;21.90;39.60;;;;;;5063903;28;20028;-63
2023/04/30 12:21:33;;;;;;;7.22;6.10;;;21.90;39.50;;;;;;5063205;28;20365;-60
2023/04/30 12:23:59;;;;;;;7.75;5.68;;;21.90;39.50;;;;;;5064290;28;20039;-60
2023/04/30 12:26:38;;;;;;;6.32;5.20;;;21.90;39.40;;;;;;5064438;28;20458;-63
2023/04/30 12:29:30;;;;;;;6.10;4.80;;;21.90;39.30;;;;;;5063461;28;20061;-60
2023/04/30 12:31:56;;;;;;;5.55;4.45;;;22.00;39.30;;;;;;5059457;28;20195;-63
2023/04/30 12:34:26;;;;;;;5.05;4.40;;;21.90;39.20;;;;;;5062992;28;20103;-59
2023/04/30 12:36:51;;;;;;;5.63;4.35;;;21.90;39.10;;;;;;5058427;28;20028;-59
2023/04/30 12:39:17;;;;;;;4.85;3.83;;;21.90;39.10;;;;;;5063332;28;20411;-60
2023/04/30 12:41:47;;;;;;;5.90;3.70;;;22.00;39.10;;;;;;5062302;28;20059;-60
2023/04/30 12:44:21;;;;;;;4.10;3.30;;;21.90;38.90;;;;;;5063212;28;20071;-61
2023/04/30 12:46:50;;;;;;;4.13;3.47;;;21.90;38.90;;;;;;5082026;28;20414;-59
2023/04/30 12:49:33;;;;;;;5.85;3.95;;;22.00;38.90;;;;;;5084000;28;20118;-60